sensor_id;sensor_type;location;lat;lon;timestamp;P1;durP1;ratioP1;P2;durP2;ratioP2
11539;SDS011;5826;54.756;9.192;2023-05-07T00:00:33;6.37;;;3.93;;
11539;SDS011;5826;54.756;9.192;2023-05-07T00:02:59;5.77;;;3.67;;
11539;SDS011;5826;54.756;9.192;2023-05-07T00:05:24;5.30;;;3.73;;
11539;SDS011;5826;54.756;9.192;2023-05-07T00:07:50;8.53;;;4.03;;
11539;SDS011;5826;54.756;9.192;2023-05-07T00:10:17;6.73;;;3.43;;
11539;SDS011;5826;54.756;9.192;2023-05-07T00:12:43;5.93;;;3.40;;
11539;SDS011;5826;54.756;9.192;2023-05-07T00:15:09;5.80;;;3.47;;
11539;SDS011;5826;54.756;9.192;2023-05-07T00:17:35;5.77;;;3.30;;
11539;SDS011;5826;54.756;9.192;2023-05-07T00:20:01;7.93;;;4.17;;
11539;SDS011;5826;54.756;9.192;2023-05-07T00:22:28;6.47;;;3.87;;
11539;SDS011;5826;54.756;9.192;2023-05-07T00:24:55;5.37;;;3.80;;
11539;SDS011;5826;54.756;9.192;2023-05-07T00:27:21;6.00;;;4.20;;
11539;SDS011;5826;54.756;9.192;2023-05-07T00:29:47;7.90;;;4.07;;
11539;SDS011;5826;54.756;9.192;2023-05-07T00:32:13;6.67;;;3.80;;
11539;SDS011;5826;54.756;9.192;2023-05-07T00:34:38;7.23;;;4.03;;
11539;SDS011;5826;54.756;9.192;2023-05-07T00:37:04;6.33;;;4.40;;
11539;SDS011;5826;54.756;9.192;2023-05-07T00:39:30;6.63;;;3.90;;
11539;SDS011;5826;54.756;9.192;2023-05-07T00:41:55;5.20;;;3.43;;
11539;SDS011;5826;54.756;9.192;2023-05-07T00:44:21;6.07;;;4.07;;
11539;SDS011;5826;54.756;9.192;2023-05-07T00:46:47;8.07;;;4.67;;
11539;SDS011;5826;54.756;9.192;2023-05-07T00:49:14;6.90;;;4.30;;
11539;SDS011;5826;54.756;9.192;2023-05-07T00:51:40;6.47;;;4.00;;
11539;SDS011;5826;54.756;9.192;2023-05-07T00:54:06;7.40;;;4.10;;
11539;SDS011;5826;54.756;9.192;2023-05-07T00:56:32;6.13;;;4.17;;
11539;SDS011;5826;54.756;9.192;2023-05-07T00:58:58;7.73;;;3.83;;
11539;SDS011;5826;54.756;9.192;2023-05-07T01:01:23;6.25;;;3.85;;
11539;SDS011;5826;54.756;9.192;2023-05-07T01:03:49;6.20;;;3.73;;
11539;SDS011;5826;54.756;9.192;2023-05-07T01:06:14;5.53;;;3.93;;
11539;SDS011;5826;54.756;9.192;2023-05-07T01:08:41;7.23;;;4.23;;
11539;SDS011;5826;54.756;9.192;2023-05-07T01:11:08;7.30;;;4.17;;
11539;SDS011;5826;54.756;9.192;2023-05-07T01:13:34;7.03;;;4.23;;
11539;SDS011;5826;54.756;9.192;2023-05-07T01:16:01;5.90;;;4.00;;
11539;SDS011;5826;54.756;9.192;2023-05-07T01:18:28;6.00;;;4.30;;
11539;SDS011;5826;54.756;9.192;2023-05-07T01:20:55;7.83;;;4.17;;
11539;SDS011;5826;54.756;9.192;2023-05-07T01:23:23;6.10;;;4.30;;
11539;SDS011;5826;54.756;9.192;2023-05-07T01:25:53;5.23;;;3.73;;
11539;SDS011;5826;54.756;9.192;2023-05-07T01:28:19;6.35;;;4.15;;
11539;SDS011;5826;54.756;9.192;2023-05-07T01:30:47;6.03;;;4.00;;
11539;SDS011;5826;54.756;9.192;2023-05-07T01:33:17;6.90;;;3.97;;
11539;SDS011;5826;54.756;9.192;2023-05-07T01:35:46;5.20;;;3.90;;
11539;SDS011;5826;54.756;9.192;2023-05-07T01:38:13;7.87;;;4.60;;
11539;SDS011;5826;54.756;9.192;2023-05-07T01:40:39;6.82;;;4.45;;
11539;SDS011;5826;54.756;9.192;2023-05-07T01:43:06;6.07;;;4.10;;
11539;SDS011;5826;54.756;9.192;2023-05-07T01:45:32;5.73;;;3.97;;
11539;SDS011;5826;54.756;9.192;2023-05-07T01:47:59;7.10;;;4.00;;
11539;SDS011;5826;54.756;9.192;2023-05-07T01:50:24;6.03;;;4.10;;
11539;SDS011;5826;54.756;9.192;2023-05-07T01:52:51;6.13;;;4.10;;
11539;SDS011;5826;54.756;9.192;2023-05-07T01:55:16;7.47;;;4.60;;
11539;SDS011;5826;54.756;9.192;2023-05-07T01:57:42;6.07;;;4.33;;
11539;SDS011;5826;54.756;9.192;2023-05-07T02:00:08;8.53;;;4.40;;
11539;SDS011;5826;54.756;9.192;2023-05-07T02:02:34;5.63;;;4.00;;
11539;SDS011;5826;54.756;9.192;2023-05-07T02:05:00;5.72;;;4.25;;
11539;SDS011;5826;54.756;9.192;2023-05-07T02:07:26;5.35;;;4.28;;
11539;SDS011;5826;54.756;9.192;2023-05-07T02:09:52;6.37;;;5.27;;
11539;SDS011;5826;54.756;9.192;2023-05-07T02:12:20;6.65;;;4.43;;
11539;SDS011;5826;54.756;9.192;2023-05-07T02:14:45;5.38;;;4.22;;
11539;SDS011;5826;54.756;9.192;2023-05-07T02:17:11;6.77;;;4.47;;
11539;SDS011;5826;54.756;9.192;2023-05-07T02:19:36;5.47;;;4.38;;
11539;SDS011;5826;54.756;9.192;2023-05-07T02:22:02;6.40;;;4.53;;
11539;SDS011;5826;54.756;9.192;2023-05-07T02:24:27;6.15;;;4.47;;
11539;SDS011;5826;54.756;9.192;2023-05-07T02:26:53;7.15;;;4.65;;
11539;SDS011;5826;54.756;9.192;2023-05-07T02:29:18;6.00;;;4.63;;
11539;SDS011;5826;54.756;9.192;2023-05-07T02:31:44;5.72;;;4.38;;
11539;SDS011;5826;54.756;9.192;2023-05-07T02:34:09;10.77;;;5.00;;
11539;SDS011;5826;54.756;9.192;2023-05-07T02:36:35;5.23;;;4.37;;
11539;SDS011;5826;54.756;9.192;2023-05-07T02:39:01;6.72;;;4.57;;
11539;SDS011;5826;54.756;9.192;2023-05-07T02:41:27;5.53;;;4.70;;
11539;SDS011;5826;54.756;9.192;2023-05-07T02:43:53;6.07;;;4.73;;
11539;SDS011;5826;54.756;9.192;2023-05-07T02:46:18;5.40;;;4.40;;
11539;SDS011;5826;54.756;9.192;2023-05-07T02:48:44;5.10;;;4.60;;
11539;SDS011;5826;54.756;9.192;2023-05-07T02:51:09;6.35;;;4.70;;
11539;SDS011;5826;54.756;9.192;2023-05-07T02:53:35;5.75;;;4.38;;
11539;SDS011;5826;54.756;9.192;2023-05-07T02:56:01;5.53;;;4.47;;
11539;SDS011;5826;54.756;9.192;2023-05-07T02:58:27;6.87;;;5.27;;
11539;SDS011;5826;54.756;9.192;2023-05-07T03:00:53;6.73;;;4.80;;
11539;SDS011;5826;54.756;9.192;2023-05-07T03:03:22;6.20;;;4.90;;
11539;SDS011;5826;54.756;9.192;2023-05-07T03:05:47;5.83;;;4.93;;
11539;SDS011;5826;54.756;9.192;2023-05-07T03:08:13;5.17;;;4.50;;
11539;SDS011;5826;54.756;9.192;2023-05-07T03:10:39;4.82;;;4.20;;
11539;SDS011;5826;54.756;9.192;2023-05-07T03:13:04;6.23;;;4.67;;
11539;SDS011;5826;54.756;9.192;2023-05-07T03:15:30;5.13;;;4.40;;
11539;SDS011;5826;54.756;9.192;2023-05-07T03:17:56;5.40;;;4.40;;
11539;SDS011;5826;54.756;9.192;2023-05-07T03:20:21;4.18;;;3.70;;
11539;SDS011;5826;54.756;9.192;2023-05-07T03:22:47;5.93;;;4.87;;
11539;SDS011;5826;54.756;9.192;2023-05-07T03:25:13;5.67;;;4.77;;
11539;SDS011;5826;54.756;9.192;2023-05-07T03:27:39;6.67;;;4.70;;
11539;SDS011;5826;54.756;9.192;2023-05-07T03:30:06;4.60;;;4.10;;
11539;SDS011;5826;54.756;9.192;2023-05-07T03:32:33;6.18;;;4.60;;
11539;SDS011;5826;54.756;9.192;2023-05-07T03:35:00;4.73;;;4.27;;
11539;SDS011;5826;54.756;9.192;2023-05-07T03:37:25;5.60;;;4.40;;
11539;SDS011;5826;54.756;9.192;2023-05-07T03:39:51;5.37;;;4.57;;
11539;SDS011;5826;54.756;9.192;2023-05-07T03:42:16;5.47;;;4.43;;
11539;SDS011;5826;54.756;9.192;2023-05-07T03:44:42;5.03;;;4.13;;
11539;SDS011;5826;54.756;9.192;2023-05-07T03:47:07;5.77;;;4.13;;
11539;SDS011;5826;54.756;9.192;2023-05-07T03:49:33;5.28;;;4.43;;
11539;SDS011;5826;54.756;9.192;2023-05-07T03:51:59;5.53;;;4.65;;
11539;SDS011;5826;54.756;9.192;2023-05-07T03:54:24;5.33;;;4.83;;
11539;SDS011;5826;54.756;9.192;2023-05-07T03:56:50;5.40;;;4.63;;
11539;SDS011;5826;54.756;9.192;2023-05-07T03:59:15;5.10;;;4.60;;
11539;SDS011;5826;54.756;9.192;2023-05-07T04:01:41;5.30;;;4.35;;
11539;SDS011;5826;54.756;9.192;2023-05-07T04:04:06;5.20;;;4.20;;
11539;SDS011;5826;54.756;9.192;2023-05-07T04:06:32;5.27;;;4.60;;
11539;SDS011;5826;54.756;9.192;2023-05-07T04:08:58;5.10;;;4.57;;
11539;SDS011;5826;54.756;9.192;2023-05-07T04:11:23;5.70;;;5.07;;
11539;SDS011;5826;54.756;9.192;2023-05-07T04:13:49;4.83;;;4.27;;
11539;SDS011;5826;54.756;9.192;2023-05-07T04:16:15;5.13;;;4.47;;
11539;SDS011;5826;54.756;9.192;2023-05-07T04:18:41;5.73;;;4.70;;
11539;SDS011;5826;54.756;9.192;2023-05-07T04:21:13;4.47;;;4.07;;
11539;SDS011;5826;54.756;9.192;2023-05-07T04:23:39;4.60;;;4.20;;
11539;SDS011;5826;54.756;9.192;2023-05-07T04:26:05;5.33;;;4.83;;
11539;SDS011;5826;54.756;9.192;2023-05-07T04:28:30;4.73;;;4.33;;
11539;SDS011;5826;54.756;9.192;2023-05-07T04:30:56;6.03;;;4.40;;
11539;SDS011;5826;54.756;9.192;2023-05-07T04:33:22;4.68;;;4.18;;
11539;SDS011;5826;54.756;9.192;2023-05-07T04:35:47;5.80;;;4.60;;
11539;SDS011;5826;54.756;9.192;2023-05-07T04:38:13;4.57;;;4.17;;
11539;SDS011;5826;54.756;9.192;2023-05-07T04:40:39;5.38;;;4.88;;
11539;SDS011;5826;54.756;9.192;2023-05-07T04:43:06;4.50;;;4.10;;
11539;SDS011;5826;54.756;9.192;2023-05-07T04:45:32;5.93;;;4.80;;
11539;SDS011;5826;54.756;9.192;2023-05-07T04:47:58;5.63;;;4.50;;
11539;SDS011;5826;54.756;9.192;2023-05-07T04:50:23;5.38;;;4.60;;
11539;SDS011;5826;54.756;9.192;2023-05-07T04:52:49;5.90;;;5.30;;
11539;SDS011;5826;54.756;9.192;2023-05-07T04:55:15;4.95;;;4.45;;
11539;SDS011;5826;54.756;9.192;2023-05-07T04:57:41;5.10;;;4.60;;
11539;SDS011;5826;54.756;9.192;2023-05-07T05:00:07;5.07;;;4.32;;
11539;SDS011;5826;54.756;9.192;2023-05-07T05:02:34;5.05;;;4.47;;
11539;SDS011;5826;54.756;9.192;2023-05-07T05:05:00;4.97;;;4.37;;
11539;SDS011;5826;54.756;9.192;2023-05-07T05:07:27;4.90;;;4.40;;
11539;SDS011;5826;54.756;9.192;2023-05-07T05:09:53;5.30;;;4.70;;
11539;SDS011;5826;54.756;9.192;2023-05-07T05:12:18;5.40;;;4.60;;
11539;SDS011;5826;54.756;9.192;2023-05-07T05:14:44;5.00;;;4.50;;
11539;SDS011;5826;54.756;9.192;2023-05-07T05:17:10;5.50;;;4.70;;
11539;SDS011;5826;54.756;9.192;2023-05-07T05:19:35;6.57;;;5.55;;
11539;SDS011;5826;54.756;9.192;2023-05-07T05:22:00;4.82;;;4.32;;
11539;SDS011;5826;54.756;9.192;2023-05-07T05:24:28;5.38;;;4.18;;
11539;SDS011;5826;54.756;9.192;2023-05-07T05:26:54;4.63;;;4.22;;
11539;SDS011;5826;54.756;9.192;2023-05-07T05:29:20;4.47;;;4.03;;
11539;SDS011;5826;54.756;9.192;2023-05-07T05:31:45;4.90;;;4.40;;
11539;SDS011;5826;54.756;9.192;2023-05-07T05:34:11;4.53;;;4.13;;
11539;SDS011;5826;54.756;9.192;2023-05-07T05:36:36;4.40;;;4.00;;
11539;SDS011;5826;54.756;9.192;2023-05-07T05:39:02;4.80;;;4.30;;
11539;SDS011;5826;54.756;9.192;2023-05-07T05:41:28;4.78;;;4.28;;
11539;SDS011;5826;54.756;9.192;2023-05-07T05:43:53;4.45;;;4.00;;
11539;SDS011;5826;54.756;9.192;2023-05-07T05:46:19;4.38;;;3.97;;
11539;SDS011;5826;54.756;9.192;2023-05-07T05:48:44;3.85;;;3.45;;
11539;SDS011;5826;54.756;9.192;2023-05-07T05:51:10;4.80;;;4.25;;
11539;SDS011;5826;54.756;9.192;2023-05-07T05:53:35;4.10;;;3.70;;
11539;SDS011;5826;54.756;9.192;2023-05-07T05:56:01;4.15;;;3.53;;
11539;SDS011;5826;54.756;9.192;2023-05-07T05:58:27;4.05;;;3.67;;
11539;SDS011;5826;54.756;9.192;2023-05-07T06:00:53;3.85;;;3.38;;
11539;SDS011;5826;54.756;9.192;2023-05-07T06:03:18;4.50;;;4.05;;
11539;SDS011;5826;54.756;9.192;2023-05-07T06:05:44;4.43;;;4.03;;
11539;SDS011;5826;54.756;9.192;2023-05-07T06:08:09;4.72;;;4.20;;
11539;SDS011;5826;54.756;9.192;2023-05-07T06:10:38;4.13;;;3.80;;
11539;SDS011;5826;54.756;9.192;2023-05-07T06:13:03;4.80;;;4.40;;
11539;SDS011;5826;54.756;9.192;2023-05-07T06:15:29;3.90;;;3.50;;
11539;SDS011;5826;54.756;9.192;2023-05-07T06:17:54;5.03;;;4.50;;
11539;SDS011;5826;54.756;9.192;2023-05-07T06:20:22;4.13;;;3.72;;
11539;SDS011;5826;54.756;9.192;2023-05-07T06:22:47;4.47;;;4.07;;
11539;SDS011;5826;54.756;9.192;2023-05-07T06:25:13;3.70;;;3.40;;
11539;SDS011;5826;54.756;9.192;2023-05-07T06:27:39;4.15;;;3.65;;
11539;SDS011;5826;54.756;9.192;2023-05-07T06:30:05;3.75;;;3.28;;
11539;SDS011;5826;54.756;9.192;2023-05-07T06:32:31;4.80;;;4.25;;
11539;SDS011;5826;54.756;9.192;2023-05-07T06:34:56;5.03;;;3.60;;
11539;SDS011;5826;54.756;9.192;2023-05-07T06:37:22;4.03;;;3.50;;
11539;SDS011;5826;54.756;9.192;2023-05-07T06:39:47;4.30;;;3.70;;
11539;SDS011;5826;54.756;9.192;2023-05-07T06:42:13;3.95;;;3.40;;
11539;SDS011;5826;54.756;9.192;2023-05-07T06:44:38;4.05;;;3.10;;
11539;SDS011;5826;54.756;9.192;2023-05-07T06:47:04;3.80;;;3.50;;
11539;SDS011;5826;54.756;9.192;2023-05-07T06:49:30;3.72;;;3.42;;
11539;SDS011;5826;54.756;9.192;2023-05-07T06:51:56;4.30;;;3.90;;
11539;SDS011;5826;54.756;9.192;2023-05-07T06:54:22;4.68;;;3.90;;
11539;SDS011;5826;54.756;9.192;2023-05-07T06:56:48;3.40;;;3.10;;
11539;SDS011;5826;54.756;9.192;2023-05-07T06:59:13;3.72;;;3.30;;
11539;SDS011;5826;54.756;9.192;2023-05-07T07:01:39;3.50;;;3.20;;
11539;SDS011;5826;54.756;9.192;2023-05-07T07:04:05;4.18;;;3.75;;
11539;SDS011;5826;54.756;9.192;2023-05-07T07:06:30;3.60;;;2.97;;
11539;SDS011;5826;54.756;9.192;2023-05-07T07:08:57;3.70;;;3.40;;
11539;SDS011;5826;54.756;9.192;2023-05-07T07:11:23;3.88;;;3.45;;
11539;SDS011;5826;54.756;9.192;2023-05-07T07:13:48;3.60;;;3.30;;
11539;SDS011;5826;54.756;9.192;2023-05-07T07:16:14;3.17;;;2.92;;
11539;SDS011;5826;54.756;9.192;2023-05-07T07:18:40;3.90;;;3.50;;
11539;SDS011;5826;54.756;9.192;2023-05-07T07:21:05;4.20;;;3.13;;
11539;SDS011;5826;54.756;9.192;2023-05-07T07:23:31;3.78;;;3.28;;
11539;SDS011;5826;54.756;9.192;2023-05-07T07:25:56;3.83;;;3.15;;
11539;SDS011;5826;54.756;9.192;2023-05-07T07:28:22;3.40;;;2.88;;
11539;SDS011;5826;54.756;9.192;2023-05-07T07:30:47;4.15;;;3.45;;
11539;SDS011;5826;54.756;9.192;2023-05-07T07:33:13;3.33;;;3.03;;
11539;SDS011;5826;54.756;9.192;2023-05-07T07:35:39;3.88;;;3.47;;
11539;SDS011;5826;54.756;9.192;2023-05-07T07:38:05;3.50;;;3.17;;
11539;SDS011;5826;54.756;9.192;2023-05-07T07:40:30;3.70;;;2.80;;
11539;SDS011;5826;54.756;9.192;2023-05-07T07:42:56;3.40;;;3.10;;
11539;SDS011;5826;54.756;9.192;2023-05-07T07:45:22;3.50;;;3.20;;
11539;SDS011;5826;54.756;9.192;2023-05-07T07:47:48;3.53;;;3.10;;
11539;SDS011;5826;54.756;9.192;2023-05-07T07:50:13;4.10;;;3.25;;
11539;SDS011;5826;54.756;9.192;2023-05-07T07:52:39;4.30;;;3.75;;
11539;SDS011;5826;54.756;9.192;2023-05-07T07:55:05;4.18;;;3.40;;
11539;SDS011;5826;54.756;9.192;2023-05-07T07:57:31;4.03;;;3.63;;
11539;SDS011;5826;54.756;9.192;2023-05-07T07:59:57;4.60;;;3.55;;
11539;SDS011;5826;54.756;9.192;2023-05-07T08:02:23;3.30;;;3.00;;
11539;SDS011;5826;54.756;9.192;2023-05-07T08:04:49;3.65;;;3.35;;
11539;SDS011;5826;54.756;9.192;2023-05-07T08:07:14;3.70;;;3.40;;
11539;SDS011;5826;54.756;9.192;2023-05-07T08:09:40;3.53;;;3.22;;
11539;SDS011;5826;54.756;9.192;2023-05-07T08:12:06;3.75;;;3.42;;
11539;SDS011;5826;54.756;9.192;2023-05-07T08:14:32;3.50;;;3.20;;
11539;SDS011;5826;54.756;9.192;2023-05-07T08:16:57;3.60;;;2.88;;
11539;SDS011;5826;54.756;9.192;2023-05-07T08:19:23;3.60;;;3.30;;
11539;SDS011;5826;54.756;9.192;2023-05-07T08:21:48;3.15;;;2.83;;
11539;SDS011;5826;54.756;9.192;2023-05-07T08:24:14;3.60;;;3.30;;
11539;SDS011;5826;54.756;9.192;2023-05-07T08:26:40;3.15;;;2.72;;
11539;SDS011;5826;54.756;9.192;2023-05-07T08:29:06;3.53;;;3.22;;
11539;SDS011;5826;54.756;9.192;2023-05-07T08:31:32;3.90;;;3.55;;
11539;SDS011;5826;54.756;9.192;2023-05-07T08:33:58;3.55;;;3.25;;
11539;SDS011;5826;54.756;9.192;2023-05-07T08:36:24;3.53;;;3.22;;
11539;SDS011;5826;54.756;9.192;2023-05-07T08:38:50;3.70;;;3.33;;
11539;SDS011;5826;54.756;9.192;2023-05-07T08:41:16;3.47;;;3.17;;
11539;SDS011;5826;54.756;9.192;2023-05-07T08:43:42;3.85;;;3.47;;
11539;SDS011;5826;54.756;9.192;2023-05-07T08:46:15;3.63;;;3.33;;
11539;SDS011;5826;54.756;9.192;2023-05-07T08:48:43;4.03;;;3.72;;
11539;SDS011;5826;54.756;9.192;2023-05-07T08:51:12;3.90;;;3.00;;
11539;SDS011;5826;54.756;9.192;2023-05-07T08:53:39;3.85;;;2.80;;
11539;SDS011;5826;54.756;9.192;2023-05-07T08:56:06;5.40;;;4.07;;
11539;SDS011;5826;54.756;9.192;2023-05-07T08:58:33;4.18;;;3.70;;
11539;SDS011;5826;54.756;9.192;2023-05-07T09:01:00;3.92;;;3.63;;
11539;SDS011;5826;54.756;9.192;2023-05-07T09:03:31;3.72;;;3.42;;
11539;SDS011;5826;54.756;9.192;2023-05-07T09:05:57;3.20;;;2.90;;
11539;SDS011;5826;54.756;9.192;2023-05-07T09:08:26;4.05;;;3.47;;
11539;SDS011;5826;54.756;9.192;2023-05-07T09:10:52;4.82;;;3.83;;
11539;SDS011;5826;54.756;9.192;2023-05-07T09:13:18;3.80;;;3.42;;
11539;SDS011;5826;54.756;9.192;2023-05-07T09:15:44;4.47;;;3.60;;
11539;SDS011;5826;54.756;9.192;2023-05-07T09:18:09;3.17;;;2.88;;
11539;SDS011;5826;54.756;9.192;2023-05-07T09:20:38;4.15;;;2.85;;
11539;SDS011;5826;54.756;9.192;2023-05-07T09:23:05;3.50;;;3.20;;
11539;SDS011;5826;54.756;9.192;2023-05-07T09:25:32;3.15;;;2.85;;
11539;SDS011;5826;54.756;9.192;2023-05-07T09:28:00;2.97;;;2.78;;
11539;SDS011;5826;54.756;9.192;2023-05-07T09:30:30;3.50;;;3.20;;
11539;SDS011;5826;54.756;9.192;2023-05-07T09:32:57;3.40;;;3.10;;
11539;SDS011;5826;54.756;9.192;2023-05-07T09:35:23;3.63;;;3.33;;
11539;SDS011;5826;54.756;9.192;2023-05-07T09:37:52;3.08;;;2.78;;
11539;SDS011;5826;54.756;9.192;2023-05-07T09:40:21;3.15;;;2.92;;
11539;SDS011;5826;54.756;9.192;2023-05-07T09:42:47;3.25;;;2.95;;
11539;SDS011;5826;54.756;9.192;2023-05-07T09:45:14;3.50;;;3.17;;
11539;SDS011;5826;54.756;9.192;2023-05-07T09:47:41;3.47;;;3.05;;
11539;SDS011;5826;54.756;9.192;2023-05-07T09:50:11;3.80;;;3.50;;
11539;SDS011;5826;54.756;9.192;2023-05-07T09:52:40;3.10;;;2.80;;
11539;SDS011;5826;54.756;9.192;2023-05-07T09:55:06;2.70;;;2.50;;
11539;SDS011;5826;54.756;9.192;2023-05-07T09:57:32;3.20;;;2.95;;
11539;SDS011;5826;54.756;9.192;2023-05-07T09:59:59;3.30;;;3.00;;
11539;SDS011;5826;54.756;9.192;2023-05-07T10:02:29;3.45;;;3.00;;
11539;SDS011;5826;54.756;9.192;2023-05-07T10:04:56;3.58;;;3.03;;
11539;SDS011;5826;54.756;9.192;2023-05-07T10:07:25;3.53;;;3.22;;
11539;SDS011;5826;54.756;9.192;2023-05-07T10:09:51;3.22;;;2.95;;
11539;SDS011;5826;54.756;9.192;2023-05-07T10:12:17;3.40;;;3.10;;
11539;SDS011;5826;54.756;9.192;2023-05-07T10:14:43;3.50;;;2.97;;
11539;SDS011;5826;54.756;9.192;2023-05-07T10:17:11;3.40;;;3.10;;
11539;SDS011;5826;54.756;9.192;2023-05-07T10:19:37;3.63;;;3.13;;
11539;SDS011;5826;54.756;9.192;2023-05-07T10:22:04;3.25;;;2.95;;
11539;SDS011;5826;54.756;9.192;2023-05-07T10:24:34;3.60;;;3.05;;
11539;SDS011;5826;54.756;9.192;2023-05-07T10:27:02;3.10;;;2.80;;
11539;SDS011;5826;54.756;9.192;2023-05-07T10:32:37;3.25;;;2.92;;
11539;SDS011;5826;54.756;9.192;2023-05-07T10:35:06;3.35;;;3.05;;
11539;SDS011;5826;54.756;9.192;2023-05-07T10:37:38;3.30;;;3.00;;
11539;SDS011;5826;54.756;9.192;2023-05-07T10:40:05;3.50;;;2.80;;
11539;SDS011;5826;54.756;9.192;2023-05-07T10:42:32;3.50;;;3.20;;
11539;SDS011;5826;54.756;9.192;2023-05-07T10:44:57;3.33;;;3.03;;
11539;SDS011;5826;54.756;9.192;2023-05-07T10:47:36;3.35;;;3.05;;
11539;SDS011;5826;54.756;9.192;2023-05-07T10:50:21;3.60;;;3.30;;
11539;SDS011;5826;54.756;9.192;2023-05-07T10:53:03;3.80;;;3.50;;
11539;SDS011;5826;54.756;9.192;2023-05-07T10:55:42;3.55;;;3.25;;
11539;SDS011;5826;54.756;9.192;2023-05-07T11:00:46;4.20;;;3.80;;
11539;SDS011;5826;54.756;9.192;2023-05-07T11:03:13;4.28;;;3.30;;
11539;SDS011;5826;54.756;9.192;2023-05-07T11:05:40;3.85;;;3.55;;
11539;SDS011;5826;54.756;9.192;2023-05-07T11:08:06;3.00;;;2.80;;
11539;SDS011;5826;54.756;9.192;2023-05-07T11:13:40;3.70;;;3.17;;
11539;SDS011;5826;54.756;9.192;2023-05-07T11:16:19;3.47;;;3.17;;
11539;SDS011;5826;54.756;9.192;2023-05-07T11:18:49;4.32;;;3.92;;
11539;SDS011;5826;54.756;9.192;2023-05-07T11:21:32;3.67;;;3.35;;
11539;SDS011;5826;54.756;9.192;2023-05-07T11:23:59;3.83;;;3.42;;
11539;SDS011;5826;54.756;9.192;2023-05-07T11:26:27;3.13;;;2.92;;
11539;SDS011;5826;54.756;9.192;2023-05-07T11:28:54;3.75;;;2.78;;
11539;SDS011;5826;54.756;9.192;2023-05-07T11:31:21;3.35;;;3.00;;
11539;SDS011;5826;54.756;9.192;2023-05-07T11:33:52;3.47;;;2.85;;
11539;SDS011;5826;54.756;9.192;2023-05-07T11:36:18;3.78;;;3.35;;
11539;SDS011;5826;54.756;9.192;2023-05-07T11:38:46;3.50;;;3.20;;
11539;SDS011;5826;54.756;9.192;2023-05-07T11:41:12;4.10;;;2.90;;
11539;SDS011;5826;54.756;9.192;2023-05-07T11:43:37;2.80;;;2.60;;
11539;SDS011;5826;54.756;9.192;2023-05-07T11:46:08;3.17;;;2.97;;
11539;SDS011;5826;54.756;9.192;2023-05-07T11:48:35;3.90;;;2.53;;
11539;SDS011;5826;54.756;9.192;2023-05-07T11:51:04;4.93;;;3.58;;
11539;SDS011;5826;54.756;9.192;2023-05-07T11:53:40;2.67;;;2.42;;
11539;SDS011;5826;54.756;9.192;2023-05-07T11:56:08;3.20;;;2.97;;
11539;SDS011;5826;54.756;9.192;2023-05-07T11:58:40;3.38;;;2.95;;
11539;SDS011;5826;54.756;9.192;2023-05-07T12:01:09;3.13;;;2.92;;
11539;SDS011;5826;54.756;9.192;2023-05-07T12:03:36;3.15;;;2.85;;
11539;SDS011;5826;54.756;9.192;2023-05-07T12:06:04;3.10;;;2.80;;
11539;SDS011;5826;54.756;9.192;2023-05-07T12:08:31;3.03;;;2.75;;
11539;SDS011;5826;54.756;9.192;2023-05-07T12:10:57;3.28;;;2.97;;
11539;SDS011;5826;54.756;9.192;2023-05-07T12:13:24;2.95;;;2.72;;
11539;SDS011;5826;54.756;9.192;2023-05-07T12:15:54;2.83;;;2.60;;
11539;SDS011;5826;54.756;9.192;2023-05-07T12:18:21;4.18;;;2.95;;
11539;SDS011;5826;54.756;9.192;2023-05-07T12:20:47;2.70;;;2.50;;
11539;SDS011;5826;54.756;9.192;2023-05-07T12:23:14;4.07;;;3.10;;
11539;SDS011;5826;54.756;9.192;2023-05-07T12:25:41;3.60;;;3.00;;
11539;SDS011;5826;54.756;9.192;2023-05-07T12:28:13;4.28;;;3.10;;
11539;SDS011;5826;54.756;9.192;2023-05-07T12:30:43;3.88;;;3.50;;
11539;SDS011;5826;54.756;9.192;2023-05-07T12:33:11;3.58;;;3.28;;
11539;SDS011;5826;54.756;9.192;2023-05-07T12:35:37;3.85;;;3.00;;
11539;SDS011;5826;54.756;9.192;2023-05-07T12:38:11;4.53;;;3.30;;
11539;SDS011;5826;54.756;9.192;2023-05-07T12:40:48;3.10;;;2.90;;
11539;SDS011;5826;54.756;9.192;2023-05-07T12:43:19;3.30;;;3.00;;
11539;SDS011;5826;54.756;9.192;2023-05-07T12:45:46;3.42;;;3.13;;
11539;SDS011;5826;54.756;9.192;2023-05-07T12:48:13;3.35;;;3.05;;
11539;SDS011;5826;54.756;9.192;2023-05-07T12:50:39;3.30;;;3.00;;
11539;SDS011;5826;54.756;9.192;2023-05-07T12:53:05;3.50;;;3.20;;
11539;SDS011;5826;54.756;9.192;2023-05-07T12:55:39;3.28;;;2.97;;
11539;SDS011;5826;54.756;9.192;2023-05-07T12:58:13;3.92;;;3.15;;
11539;SDS011;5826;54.756;9.192;2023-05-07T13:00:43;3.92;;;3.17;;
11539;SDS011;5826;54.756;9.192;2023-05-07T13:03:09;3.55;;;3.03;;
11539;SDS011;5826;54.756;9.192;2023-05-07T13:05:36;3.28;;;3.05;;
11539;SDS011;5826;54.756;9.192;2023-05-07T13:08:01;3.90;;;2.80;;
11539;SDS011;5826;54.756;9.192;2023-05-07T13:10:27;3.08;;;2.78;;
11539;SDS011;5826;54.756;9.192;2023-05-07T13:12:53;2.92;;;2.72;;
11539;SDS011;5826;54.756;9.192;2023-05-07T13:15:19;2.97;;;2.70;;
11539;SDS011;5826;54.756;9.192;2023-05-07T13:17:45;3.42;;;2.70;;
11539;SDS011;5826;54.756;9.192;2023-05-07T13:20:11;3.95;;;3.03;;
11539;SDS011;5826;54.756;9.192;2023-05-07T13:22:37;3.47;;;2.80;;
11539;SDS011;5826;54.756;9.192;2023-05-07T13:25:04;2.88;;;2.67;;
11539;SDS011;5826;54.756;9.192;2023-05-07T13:27:30;3.17;;;2.60;;
11539;SDS011;5826;54.756;9.192;2023-05-07T13:29:56;4.05;;;3.10;;
11539;SDS011;5826;54.756;9.192;2023-05-07T13:32:22;3.63;;;3.13;;
11539;SDS011;5826;54.756;9.192;2023-05-07T13:34:47;4.75;;;3.00;;
11539;SDS011;5826;54.756;9.192;2023-05-07T13:37:13;3.42;;;3.13;;
11539;SDS011;5826;54.756;9.192;2023-05-07T13:39:38;3.65;;;2.80;;
11539;SDS011;5826;54.756;9.192;2023-05-07T13:42:04;3.40;;;2.80;;
11539;SDS011;5826;54.756;9.192;2023-05-07T13:44:29;3.05;;;2.72;;
11539;SDS011;5826;54.756;9.192;2023-05-07T13:46:55;4.65;;;2.72;;
11539;SDS011;5826;54.756;9.192;2023-05-07T13:49:20;3.45;;;2.78;;
11539;SDS011;5826;54.756;9.192;2023-05-07T13:51:46;3.30;;;2.60;;
11539;SDS011;5826;54.756;9.192;2023-05-07T13:54:12;4.00;;;3.08;;
11539;SDS011;5826;54.756;9.192;2023-05-07T13:56:37;2.63;;;2.42;;
11539;SDS011;5826;54.756;9.192;2023-05-07T13:59:03;4.53;;;3.05;;
11539;SDS011;5826;54.756;9.192;2023-05-07T14:01:28;4.68;;;2.90;;
11539;SDS011;5826;54.756;9.192;2023-05-07T14:03:55;4.03;;;3.00;;
11539;SDS011;5826;54.756;9.192;2023-05-07T14:06:21;3.67;;;3.33;;
11539;SDS011;5826;54.756;9.192;2023-05-07T14:08:47;4.25;;;3.13;;
11539;SDS011;5826;54.756;9.192;2023-05-07T14:11:12;2.50;;;2.30;;
11539;SDS011;5826;54.756;9.192;2023-05-07T14:13:38;3.05;;;2.60;;
11539;SDS011;5826;54.756;9.192;2023-05-07T14:16:03;4.28;;;3.00;;
11539;SDS011;5826;54.756;9.192;2023-05-07T14:18:29;4.50;;;2.90;;
11539;SDS011;5826;54.756;9.192;2023-05-07T14:20:55;2.90;;;2.60;;
11539;SDS011;5826;54.756;9.192;2023-05-07T14:23:21;3.15;;;2.85;;
11539;SDS011;5826;54.756;9.192;2023-05-07T14:25:51;4.32;;;2.88;;
11539;SDS011;5826;54.756;9.192;2023-05-07T14:28:21;4.07;;;3.00;;
11539;SDS011;5826;54.756;9.192;2023-05-07T14:30:47;3.28;;;2.88;;
11539;SDS011;5826;54.756;9.192;2023-05-07T14:33:13;3.35;;;3.00;;
11539;SDS011;5826;54.756;9.192;2023-05-07T14:35:38;3.22;;;2.92;;
11539;SDS011;5826;54.756;9.192;2023-05-07T14:38:04;3.60;;;2.88;;
11539;SDS011;5826;54.756;9.192;2023-05-07T14:40:29;4.97;;;3.30;;
11539;SDS011;5826;54.756;9.192;2023-05-07T14:42:55;3.45;;;2.97;;
11539;SDS011;5826;54.756;9.192;2023-05-07T14:45:22;3.55;;;2.78;;
11539;SDS011;5826;54.756;9.192;2023-05-07T14:47:47;3.30;;;2.75;;
11539;SDS011;5826;54.756;9.192;2023-05-07T14:50:13;6.10;;;3.30;;
11539;SDS011;5826;54.756;9.192;2023-05-07T14:52:39;4.78;;;3.28;;
11539;SDS011;5826;54.756;9.192;2023-05-07T14:55:04;4.65;;;3.55;;
11539;SDS011;5826;54.756;9.192;2023-05-07T14:57:30;2.78;;;2.50;;
11539;SDS011;5826;54.756;9.192;2023-05-07T14:59:59;3.72;;;2.83;;
11539;SDS011;5826;54.756;9.192;2023-05-07T15:02:25;3.58;;;3.20;;
11539;SDS011;5826;54.756;9.192;2023-05-07T15:04:51;4.50;;;3.00;;